Time;durP1;ratioP1;P1;durP2;ratioP2;P2;SDS_P1;SDS_P2;PMS_P1;PMS_P2;Temp;Humidity;BMP_temperature;BMP_pressure;BME280_temperature;BME280_humidity;BME280_pressure;Samples;Min_cycle;Max_cycle;Signal;HPM_P1;HPM_P2
2022/08/22 17:46:59;;;;;;;;;;;;;;;22.18;72.33;100229.00;5093020;23;1782;-83
2022/08/22 17:49:39;;;;;;;;;;;;;;;22.17;69.57;100236.56;4970797;28;1675;-83
2022/08/22 17:52:27;;;;;;;;;;;;;;;22.15;71.15;100230.53;4979996;28;1548;-83
2022/08/22 17:54:58;;;;;;;;;;;;;;;22.07;70.63;100241.88;4969016;28;1417;-83
2022/08/22 17:57:26;;;;;;;;;;;;;;;21.97;71.40;100234.91;5004562;23;1669;-86
2022/08/22 17:59:55;;;;;;;;;;;;;;;22.00;69.49;100236.97;4970762;28;2014;-86
2022/08/22 18:02:31;;;;;;;;;;;;;;;21.89;73.60;100238.66;4976076;28;1974;-88
2022/08/22 18:05:18;;;;;;;;;;;;;;;21.83;71.63;100240.13;4981430;28;1561;-86
2022/08/22 18:07:43;;;;;;;;;;;;;;;21.85;72.70;100246.16;4976223;28;1217;-87
2022/08/22 18:10:18;;;;;;;;;;;;;;;21.76;73.70;100239.97;4975866;28;1004;-87
2022/08/22 18:12:44;;;;;;;;;;;;;;;21.78;69.46;100243.97;4936868;29;803;-86
2022/08/22 18:15:17;;;;;;;;;;;;;;;21.80;71.37;100246.41;4946381;29;1641;-87
2022/08/22 18:17:49;;;;;;;;;;;;;;;21.81;69.36;100253.59;4967482;28;1422;-87
2022/08/22 18:20:21;;;;;;;;;;;;;;;21.71;71.43;100260.53;4959555;28;1095;-87
2022/08/22 18:22:55;;;;;;;;;;;;;;;21.74;70.77;100259.00;4940684;29;1887;-86
2022/08/22 18:25:21;;;;;;;;;;;;;;;21.59;71.34;100255.06;4927996;29;1726;-85
2022/08/22 18:27:58;;;;;;;;;;;;;;;21.63;69.72;100260.72;4942715;29;1237;-85
2022/08/22 18:30:32;;;;;;;;;;;;;;;21.61;68.62;100257.47;4924585;29;1222;-85
2022/08/22 18:33:10;;;;;;;;;;;;;;;21.61;73.99;100265.81;4922374;29;1244;-85
2022/08/22 18:35:46;;;;;;;;;;;;;;;21.53;73.25;100264.84;4940008;29;912;-84
2022/08/22 18:38:28;;;;;;;;;;;;;;;21.52;73.14;100272.38;4940989;29;1287;-86
2022/08/22 18:40:57;;;;;;;;;;;;;;;21.36;72.03;100271.59;4941697;29;1898;-87
2022/08/22 18:43:37;;;;;;;;;;;;;;;21.35;72.69;100289.44;4942024;29;1376;-85
2022/08/22 18:46:22;;;;;;;;;;;;;;;21.44;70.51;100287.31;4965335;28;1965;-85
2022/08/22 18:48:47;;;;;;;;;;;;;;;21.36;73.11;100282.72;4946811;28;1271;-85
2022/08/22 18:54:10;;;;;;;;;;;;;;;21.43;71.95;100291.28;4979055;28;1172;-85
2022/08/22 18:56:35;;;;;;;;;;;;;;;21.36;73.30;100287.47;4984209;28;864;-85
2022/08/22 18:59:03;;;;;;;;;;;;;;;21.36;72.30;100291.06;4982967;28;1265;-84
2022/08/22 19:01:28;;;;;;;;;;;;;;;21.34;68.71;100300.97;4965429;28;1891;-85
2022/08/22 19:03:53;;;;;;;;;;;;;;;21.39;68.72;100284.81;4964389;28;1844;-85
2022/08/22 19:06:27;;;;;;;;;;;;;;;21.49;65.78;100298.19;4979833;28;1472;-84
2022/08/22 19:08:55;;;;;;;;;;;;;;;21.51;68.53;100295.06;4960493;29;1244;-83
2022/08/22 19:11:38;;;;;;;;;;;;;;;21.47;69.18;100305.28;4960215;29;890;-83
2022/08/22 19:14:25;;;;;;;;;;;;;;;21.47;67.51;100305.28;4960001;29;751;-83
2022/08/22 19:17:03;;;;;;;;;;;;;;;21.51;68.91;100306.19;4965561;28;1942;-83
2022/08/22 19:22:33;;;;;;;;;;;;;;;21.36;71.52;100315.31;4961335;29;1918;-84
2022/08/22 19:25:04;;;;;;;;;;;;;;;21.40;71.60;100313.47;4944338;29;1271;-85
2022/08/22 19:27:31;;;;;;;;;;;;;;;21.37;71.05;100319.72;4962636;29;1323;-84
2022/08/22 19:29:58;;;;;;;;;;;;;;;21.42;71.13;100319.47;4967980;28;1770;-85
2022/08/22 19:32:54;;;;;;;;;;;;;;;21.40;71.20;100325.41;4973679;28;1223;-85
2022/08/22 19:35:21;;;;;;;;;;;;;;;21.31;71.25;100323.94;4968464;28;1198;-84
2022/08/22 19:37:51;;;;;;;;;;;;;;;21.33;71.52;100318.84;4980480;28;1244;-85
2022/08/22 19:40:39;;;;;;;;;;;;;;;21.34;69.59;100323.25;4963799;28;1489;-84
2022/08/22 19:43:19;;;;;;;;;;;;;;;21.25;71.16;100323.41;4981096;28;1059;-84
2022/08/22 19:45:44;;;;;;;;;;;;;;;21.20;72.98;100333.97;4974165;28;1615;-84
2022/08/22 19:48:10;;;;;;;;;;;;;;;21.12;72.09;100332.94;4977306;28;1631;-85
2022/08/22 19:50:36;;;;;;;;;;;;;;;21.15;69.91;100332.25;4980894;28;838;-84
2022/08/22 19:53:20;;;;;;;;;;;;;;;21.21;70.86;100330.84;4978864;28;885;-84
2022/08/22 19:56:08;;;;;;;;;;;;;;;21.24;69.54;100332.13;4978833;28;845;-85
2022/08/22 19:58:43;;;;;;;;;;;;;;;21.26;68.00;100336.16;4978139;28;1227;-84
2022/08/22 20:01:29;;;;;;;;;;;;;;;21.25;68.20;100342.91;4972722;28;1965;-83
2022/08/22 20:03:59;;;;;;;;;;;;;;;21.20;67.24;100343.13;4966093;28;1749;-85
2022/08/22 20:06:31;;;;;;;;;;;;;;;21.21;66.93;100336.41;4969378;28;1743;-84
2022/08/22 20:09:05;;;;;;;;;;;;;;;21.18;66.75;100331.53;4971908;28;1348;-85
2022/08/22 20:11:37;;;;;;;;;;;;;;;21.09;69.41;100337.25;4973426;28;2102;-84
2022/08/22 20:14:09;;;;;;;;;;;;;;;21.10;69.59;100340.84;4972441;28;1446;-83
2022/08/22 20:16:52;;;;;;;;;;;;;;;21.05;68.16;100343.88;4973560;28;1692;-84
2022/08/22 20:19:18;;;;;;;;;;;;;;;21.12;68.89;100350.44;4963237;28;1717;-85
2022/08/22 20:21:51;;;;;;;;;;;;;;;21.04;67.47;100347.81;4971021;28;1951;-83
2022/08/22 20:24:19;;;;;;;;;;;;;;;20.96;67.82;100351.56;4969115;28;1764;-84
2022/08/22 20:26:46;;;;;;;;;;;;;;;21.01;67.83;100349.34;4977007;28;1882;-84
2022/08/22 20:29:11;;;;;;;;;;;;;;;20.86;69.21;100347.31;4962826;28;1785;-83
2022/08/22 20:31:36;;;;;;;;;;;;;;;20.96;67.03;100351.56;4958021;29;914;-84
2022/08/22 20:34:14;;;;;;;;;;;;;;;21.03;67.35;100351.75;4941123;29;1060;-84
2022/08/22 20:36:44;;;;;;;;;;;;;;;20.99;68.11;100350.88;4957983;29;1064;-83
2022/08/22 20:39:12;;;;;;;;;;;;;;;20.95;69.52;100349.94;4957947;29;1934;-83
2022/08/22 20:41:39;;;;;;;;;;;;;;;20.91;70.89;100354.63;4979196;28;1894;-84
2022/08/22 20:44:23;;;;;;;;;;;;;;;20.83;71.24;100358.34;4978580;28;853;-84
2022/08/22 20:46:53;;;;;;;;;;;;;;;20.86;67.41;100358.44;4979698;28;1091;-84
2022/08/22 20:49:18;;;;;;;;;;;;;;;20.95;67.97;100356.31;4980001;28;1228;-84
2022/08/22 20:52:13;;;;;;;;;;;;;;;20.84;68.62;100366.31;4959910;28;1354;-84
2022/08/22 20:54:39;;;;;;;;;;;;;;;20.71;71.38;100368.34;4936579;29;1818;-84
2022/08/22 20:57:14;;;;;;;;;;;;;;;20.76;69.66;100362.53;4964942;28;1565;-84
2022/08/22 20:59:40;;;;;;;;;;;;;;;20.77;69.12;100369.72;4957292;29;760;-84
2022/08/22 21:02:05;;;;;;;;;;;;;;;20.82;69.74;100374.22;4957003;29;1895;-84
2022/08/22 21:04:37;;;;;;;;;;;;;;;20.75;70.49;100374.84;4957105;29;687;-84
2022/08/22 21:07:02;;;;;;;;;;;;;;;20.73;72.18;100373.56;4957107;29;1261;-83
2022/08/22 21:12:11;;;;;;;;;;;;;;;20.66;71.01;100379.72;4965244;28;1720;-85
2022/08/22 21:14:43;;;;;;;;;;;;;;;20.64;69.43;100376.47;4975366;28;1566;-85
2022/08/22 21:17:15;;;;;;;;;;;;;;;20.66;68.90;100376.13;4976967;28;1362;-84
2022/08/22 21:19:40;;;;;;;;;;;;;;;20.61;70.43;100377.16;4976501;28;1028;-83
2022/08/22 21:22:35;;;;;;;;;;;;;;;20.64;71.42;100378.44;4976181;28;1899;-84
2022/08/22 21:25:00;;;;;;;;;;;;;;;20.71;69.62;100389.78;4963093;28;1305;-83
2022/08/22 21:27:28;;;;;;;;;;;;;;;20.68;69.80;100387.69;4967790;28;1662;-85
2022/08/22 21:29:53;;;;;;;;;;;;;;;20.75;68.68;100388.75;4975416;28;2115;-84
2022/08/22 21:32:31;;;;;;;;;;;;;;;20.81;68.70;100388.50;4976193;28;992;-84
2022/08/22 21:34:56;;;;;;;;;;;;;;;20.70;68.99;100386.19;4977125;28;798;-85
2022/08/22 21:37:31;;;;;;;;;;;;;;;20.71;67.54;100393.38;4976648;28;1220;-84
2022/08/22 21:40:00;;;;;;;;;;;;;;;20.74;67.11;100389.91;4976869;28;874;-83
2022/08/22 21:42:27;;;;;;;;;;;;;;;20.89;65.32;100393.91;4950055;28;1899;-83
2022/08/22 21:44:57;;;;;;;;;;;;;;;20.95;64.95;100392.50;4970578;28;1595;-84
2022/08/22 21:47:25;;;;;;;;;;;;;;;20.87;67.98;100390.66;4956733;29;1190;-83
2022/08/22 21:50:02;;;;;;;;;;;;;;;20.89;67.24;100390.31;4957265;29;988;-85
2022/08/22 21:52:28;;;;;;;;;;;;;;;20.98;64.71;100379.84;4957049;29;892;-83
2022/08/22 21:54:54;;;;;;;;;;;;;;;21.03;64.13;100385.16;4956322;29;1012;-84
2022/08/22 21:57:31;;;;;;;;;;;;;;;21.04;63.17;100389.56;4962874;28;1718;-84
2022/08/22 21:59:56;;;;;;;;;;;;;;;21.05;63.62;100383.66;4968418;28;1182;-85
2022/08/22 22:02:29;;;;;;;;;;;;;;;21.07;62.99;100386.09;4958698;28;1957;-84
2022/08/22 22:04:54;;;;;;;;;;;;;;;21.08;63.06;100382.97;4976640;28;915;-84
2022/08/22 22:07:20;;;;;;;;;;;;;;;21.09;62.14;100381.78;4958719;28;1220;-84
2022/08/22 22:09:45;;;;;;;;;;;;;;;21.09;62.67;100383.78;4974507;28;2028;-83
2022/08/22 22:12:10;;;;;;;;;;;;;;;21.07;62.76;100400.00;4960203;28;1660;-83
2022/08/22 22:14:39;;;;;;;;;;;;;;;21.06;62.48;100396.41;4956413;29;849;-84
2022/08/22 22:17:04;;;;;;;;;;;;;;;21.04;62.87;100398.72;4956506;29;1264;-84
2022/08/22 22:19:29;;;;;;;;;;;;;;;21.01;62.65;100398.66;4939299;29;913;-83
2022/08/22 22:21:54;;;;;;;;;;;;;;;21.01;62.05;100401.44;4958685;28;1948;-84
2022/08/22 22:24:19;;;;;;;;;;;;;;;21.02;61.96;100403.00;4960725;29;1091;-83
2022/08/22 22:26:44;;;;;;;;;;;;;;;21.01;62.50;100407.78;4969509;28;1967;-84
2022/08/22 22:29:09;;;;;;;;;;;;;;;21.01;64.54;100409.78;4978966;28;1477;-84
2022/08/22 22:31:35;;;;;;;;;;;;;;;21.00;63.09;100411.75;4966061;28;1013;-85
2022/08/22 22:34:00;;;;;;;;;;;;;;;20.99;64.33;100412.91;4971936;28;1772;-84
2022/08/22 22:36:25;;;;;;;;;;;;;;;20.96;64.36;100413.59;4965493;28;1438;-84
2022/08/22 22:38:51;;;;;;;;;;;;;;;20.98;64.50;100416.84;4983754;28;1324;-84
2022/08/22 22:41:18;;;;;;;;;;;;;;;20.96;63.73;100412.78;4974513;28;1878;-86
2022/08/22 22:43:43;;;;;;;;;;;;;;;20.93;63.34;100421.81;4983064;28;850;-84
2022/08/22 22:46:08;;;;;;;;;;;;;;;20.95;64.10;100423.09;4983816;28;849;-84
2022/08/22 22:48:33;;;;;;;;;;;;;;;20.93;63.75;100414.28;4983664;28;1233;-84
2022/08/22 22:51:04;;;;;;;;;;;;;;;20.94;62.95;100413.13;4983302;28;1056;-86
2022/08/22 22:53:30;;;;;;;;;;;;;;;20.95;63.75;100413.94;4981299;28;1507;-85
2022/08/22 22:55:55;;;;;;;;;;;;;;;20.93;63.51;100417.06;4978502;28;1158;-86
2022/08/22 22:58:20;;;;;;;;;;;;;;;20.95;62.85;100419.50;4964475;29;1284;-84
2022/08/22 23:00:45;;;;;;;;;;;;;;;20.93;62.83;100417.06;4977500;28;1965;-86
2022/08/22 23:03:10;;;;;;;;;;;;;;;20.94;63.19;100415.09;4978739;28;1959;-84
2022/08/22 23:05:35;;;;;;;;;;;;;;;20.92;62.64;100415.47;4963320;28;1599;-85
2022/08/22 23:08:01;;;;;;;;;;;;;;;20.94;61.78;100417.88;4966132;29;1241;-84
2022/08/22 23:10:27;;;;;;;;;;;;;;;20.95;62.85;100417.53;4964584;29;1130;-85
2022/08/22 23:12:52;;;;;;;;;;;;;;;20.94;62.71;100420.66;4965055;29;807;-84
2022/08/22 23:15:17;;;;;;;;;;;;;;;20.92;62.26;100418.25;4963608;28;1650;-85
2022/08/22 23:17:42;;;;;;;;;;;;;;;20.90;63.02;100419.78;4979288;28;1312;-84
2022/08/22 23:20:08;;;;;;;;;;;;;;;20.90;62.99;100423.34;4962586;29;1017;-85
2022/08/22 23:22:33;;;;;;;;;;;;;;;20.88;62.85;100424.88;4963520;29;1890;-84
2022/08/22 23:24:58;;;;;;;;;;;;;;;20.89;62.80;100423.72;4964491;29;879;-85
2022/08/22 23:27:24;;;;;;;;;;;;;;;20.88;62.57;100420.13;4965026;29;1218;-84
2022/08/22 23:29:49;;;;;;;;;;;;;;;20.89;63.09;100423.72;4966654;28;1561;-84
2022/08/22 23:32:14;;;;;;;;;;;;;;;20.87;63.69;100420.47;4977839;28;1590;-84
2022/08/22 23:34:42;;;;;;;;;;;;;;;20.85;63.27;100426.38;4960931;28;1179;-84
2022/08/22 23:37:08;;;;;;;;;;;;;;;20.86;64.03;100419.66;4965429;29;1232;-85
2022/08/22 23:39:34;;;;;;;;;;;;;;;20.87;63.82;100424.06;4965548;29;940;-85
2022/08/22 23:42:00;;;;;;;;;;;;;;;20.87;63.46;100423.25;4964795;29;1971;-86
2022/08/22 23:44:27;;;;;;;;;;;;;;;20.86;63.28;100424.41;4964777;29;849;-84
2022/08/22 23:46:53;;;;;;;;;;;;;;;20.86;63.62;100424.41;4968763;28;1505;-85
2022/08/22 23:49:18;;;;;;;;;;;;;;;20.83;63.38;100425.94;4984773;28;1347;-85
2022/08/22 23:51:43;;;;;;;;;;;;;;;20.85;64.09;100428.34;4984837;28;798;-85
2022/08/22 23:54:09;;;;;;;;;;;;;;;20.81;63.98;100425.47;4983974;28;1016;-84
2022/08/22 23:56:36;;;;;;;;;;;;;;;20.80;63.81;100428.59;4985203;28;857;-84
2022/08/22 23:59:04;;;;;;;;;;;;;;;20.79;63.41;100430.56;5042643;22;2018;-82
